sensor_id;sensor_type;location;lat;lon;timestamp;pressure;altitude;pressure_sealevel;temperature;humidity
35331;BME280;21441;52.190;20.910;2023-04-27T00:02:24;100163.56;;;3.17;100.00
35331;BME280;21441;52.190;20.910;2023-04-27T00:04:52;100177.69;;;3.16;100.00
35331;BME280;21441;52.190;20.910;2023-04-27T00:07:20;100170.63;;;3.16;100.00
35331;BME280;21441;52.190;20.910;2023-04-27T00:09:47;100167.09;;;3.27;100.00
35331;BME280;21441;52.190;20.910;2023-04-27T00:12:16;100173.22;;;3.27;100.00
35331;BME280;21441;52.190;20.910;2023-04-27T00:14:43;100178.28;;;3.40;100.00
35331;BME280;21441;52.190;20.910;2023-04-27T00:17:11;100171.75;;;3.35;100.00
35331;BME280;21441;52.190;20.910;2023-04-27T00:19:38;100167.81;;;3.29;100.00
35331;BME280;21441;52.190;20.910;2023-04-27T00:22:07;100170.91;;;3.34;100.00
35331;BME280;21441;52.190;20.910;2023-04-27T00:24:35;100170.31;;;3.30;100.00
35331;BME280;21441;52.190;20.910;2023-04-27T00:27:02;100170.31;;;3.30;100.00
35331;BME280;21441;52.190;20.910;2023-04-27T00:29:29;100169.50;;;3.30;100.00
35331;BME280;21441;52.190;20.910;2023-04-27T00:31:56;100177.56;;;3.17;100.00
35331;BME280;21441;52.190;20.910;2023-04-27T00:34:24;100178.88;;;3.23;100.00
35331;BME280;21441;52.190;20.910;2023-04-27T00:36:51;100170.31;;;2.87;100.00
35331;BME280;21441;52.190;20.910;2023-04-27T00:39:18;100185.19;;;2.88;100.00
35331;BME280;21441;52.190;20.910;2023-04-27T00:41:47;100177.06;;;2.80;100.00
35331;BME280;21441;52.190;20.910;2023-04-27T00:44:21;100181.72;;;2.76;100.00
35331;BME280;21441;52.190;20.910;2023-04-27T00:46:49;100172.28;;;2.74;100.00
35331;BME280;21441;52.190;20.910;2023-04-27T00:49:16;100183.03;;;2.82;100.00
35331;BME280;21441;52.190;20.910;2023-04-27T00:51:44;100188.44;;;2.69;100.00
35331;BME280;21441;52.190;20.910;2023-04-27T00:54:12;100184.28;;;2.55;100.00
35331;BME280;21441;52.190;20.910;2023-04-27T00:56:40;100182.72;;;2.41;100.00
35331;BME280;21441;52.190;20.910;2023-04-27T00:59:08;100182.13;;;2.49;100.00
35331;BME280;21441;52.190;20.910;2023-04-27T01:01:35;100189.78;;;2.52;100.00
35331;BME280;21441;52.190;20.910;2023-04-27T01:04:03;100185.22;;;2.43;100.00
35331;BME280;21441;52.190;20.910;2023-04-27T01:06:30;100187.38;;;2.49;100.00
35331;BME280;21441;52.190;20.910;2023-04-27T01:08:57;100189.88;;;2.39;100.00
35331;BME280;21441;52.190;20.910;2023-04-27T01:11:24;100191.09;;;2.35;100.00
35331;BME280;21441;52.190;20.910;2023-04-27T01:13:52;100195.28;;;2.38;100.00
35331;BME280;21441;52.190;20.910;2023-04-27T01:16:24;100198.66;;;2.40;100.00
35331;BME280;21441;52.190;20.910;2023-04-27T01:18:51;100199.22;;;2.21;100.00
35331;BME280;21441;52.190;20.910;2023-04-27T01:21:18;100190.97;;;2.25;100.00
35331;BME280;21441;52.190;20.910;2023-04-27T01:23:46;100205.81;;;2.26;100.00
35331;BME280;21441;52.190;20.910;2023-04-27T01:26:14;100199.94;;;2.23;100.00
35331;BME280;21441;52.190;20.910;2023-04-27T01:28:41;100196.97;;;2.27;100.00
35331;BME280;21441;52.190;20.910;2023-04-27T01:31:09;100205.81;;;2.26;100.00
35331;BME280;21441;52.190;20.910;2023-04-27T01:33:36;100197.22;;;2.36;100.00
35331;BME280;21441;52.190;20.910;2023-04-27T01:36:05;100199.13;;;2.34;100.00
35331;BME280;21441;52.190;20.910;2023-04-27T01:38:32;100190.25;;;2.35;100.00
35331;BME280;21441;52.190;20.910;2023-04-27T01:41:03;100196.22;;;2.25;100.00
35331;BME280;21441;52.190;20.910;2023-04-27T01:43:30;100202.22;;;2.27;100.00
35331;BME280;21441;52.190;20.910;2023-04-27T01:46:04;100191.47;;;2.42;100.00
35331;BME280;21441;52.190;20.910;2023-04-27T01:48:32;100198.41;;;2.43;100.00
35331;BME280;21441;52.190;20.910;2023-04-27T01:50:59;100207.28;;;2.42;100.00
35331;BME280;21441;52.190;20.910;2023-04-27T01:53:26;100207.50;;;2.27;100.00
35331;BME280;21441;52.190;20.910;2023-04-27T01:55:54;100221.97;;;2.22;100.00
35331;BME280;21441;52.190;20.910;2023-04-27T01:58:22;100211.91;;;2.16;100.00
35331;BME280;21441;52.190;20.910;2023-04-27T02:00:50;100214.66;;;2.14;100.00
35331;BME280;21441;52.190;20.910;2023-04-27T02:03:17;100215.34;;;2.05;100.00
35331;BME280;21441;52.190;20.910;2023-04-27T02:05:44;100219.63;;;1.95;100.00
35331;BME280;21441;52.190;20.910;2023-04-27T02:08:12;100215.00;;;1.98;100.00
35331;BME280;21441;52.190;20.910;2023-04-27T02:10:40;100220.47;;;1.95;100.00
35331;BME280;21441;52.190;20.910;2023-04-27T02:13:07;100215.81;;;1.88;100.00
35331;BME280;21441;52.190;20.910;2023-04-27T02:15:36;100221.31;;;1.96;100.00
35331;BME280;21441;52.190;20.910;2023-04-27T02:18:03;100217.97;;;1.94;100.00
35331;BME280;21441;52.190;20.910;2023-04-27T02:20:31;100215.06;;;1.85;100.00
35331;BME280;21441;52.190;20.910;2023-04-27T02:22:58;100216.97;;;1.83;100.00
35331;BME280;21441;52.190;20.910;2023-04-27T02:25:26;100218.06;;;1.81;100.00
35331;BME280;21441;52.190;20.910;2023-04-27T02:27:53;100209.91;;;1.84;100.00
35331;BME280;21441;52.190;20.910;2023-04-27T02:30:20;100204.19;;;1.79;100.00
35331;BME280;21441;52.190;20.910;2023-04-27T02:32:48;100210.78;;;1.84;100.00
35331;BME280;21441;52.190;20.910;2023-04-27T02:35:16;100208.28;;;1.94;100.00
35331;BME280;21441;52.190;20.910;2023-04-27T02:37:43;100207.56;;;1.92;100.00
35331;BME280;21441;52.190;20.910;2023-04-27T02:40:11;100216.25;;;1.81;100.00
35331;BME280;21441;52.190;20.910;2023-04-27T02:42:38;100217.34;;;1.90;100.00
35331;BME280;21441;52.190;20.910;2023-04-27T02:45:06;100216.97;;;1.83;100.00
35331;BME280;21441;52.190;20.910;2023-04-27T02:47:34;100222.72;;;1.89;100.00
35331;BME280;21441;52.190;20.910;2023-04-27T02:50:03;100218.31;;;1.89;100.00
35331;BME280;21441;52.190;20.910;2023-04-27T02:52:30;100223.69;;;1.88;100.00
35331;BME280;21441;52.190;20.910;2023-04-27T02:54:57;100220.09;;;1.89;100.00
35331;BME280;21441;52.190;20.910;2023-04-27T02:57:24;100220.72;;;1.92;100.00
35331;BME280;21441;52.190;20.910;2023-04-27T02:59:52;100217.34;;;1.79;100.00
35331;BME280;21441;52.190;20.910;2023-04-27T03:02:18;100219.97;;;1.79;100.00
35331;BME280;21441;52.190;20.910;2023-04-27T03:04:46;100228.13;;;1.87;100.00
35331;BME280;21441;52.190;20.910;2023-04-27T03:07:14;100228.69;;;1.79;100.00
35331;BME280;21441;52.190;20.910;2023-04-27T03:09:42;100222.69;;;1.77;100.00
35331;BME280;21441;52.190;20.910;2023-04-27T03:12:09;100231.09;;;1.82;100.00
35331;BME280;21441;52.190;20.910;2023-04-27T03:14:36;100226.41;;;1.75;100.00
35331;BME280;21441;52.190;20.910;2023-04-27T03:17:03;100225.31;;;1.77;100.00
35331;BME280;21441;52.190;20.910;2023-04-27T03:19:30;100235.28;;;1.85;100.00
35331;BME280;21441;52.190;20.910;2023-04-27T03:21:57;100233.25;;;1.89;100.00
35331;BME280;21441;52.190;20.910;2023-04-27T03:24:26;100211.78;;;1.71;100.00
35331;BME280;21441;52.190;20.910;2023-04-27T03:26:53;100233.50;;;1.85;100.00
35331;BME280;21441;52.190;20.910;2023-04-27T03:29:21;100238.88;;;1.95;100.00
35331;BME280;21441;52.190;20.910;2023-04-27T03:31:48;100231.84;;;1.96;100.00
35331;BME280;21441;52.190;20.910;2023-04-27T03:34:15;100233.88;;;1.92;100.00
35331;BME280;21441;52.190;20.910;2023-04-27T03:36:42;100229.81;;;1.99;100.00
35331;BME280;21441;52.190;20.910;2023-04-27T03:39:09;100228.16;;;1.98;100.00
35331;BME280;21441;52.190;20.910;2023-04-27T03:41:38;100228.53;;;2.05;100.00
35331;BME280;21441;52.190;20.910;2023-04-27T03:44:05;100236.69;;;2.13;100.00
35331;BME280;21441;52.190;20.910;2023-04-27T03:46:32;100240.03;;;2.15;100.00
35331;BME280;21441;52.190;20.910;2023-04-27T03:49:00;100233.56;;;2.19;100.00
35331;BME280;21441;52.190;20.910;2023-04-27T03:51:27;100241.22;;;2.22;100.00
35331;BME280;21441;52.190;20.910;2023-04-27T03:53:54;100239.91;;;2.28;100.00
35331;BME280;21441;52.190;20.910;2023-04-27T03:56:21;100251.53;;;2.37;100.00
35331;BME280;21441;52.190;20.910;2023-04-27T03:58:50;100258.84;;;2.33;100.00
35331;BME280;21441;52.190;20.910;2023-04-27T04:01:17;100265.75;;;2.23;100.00
35331;BME280;21441;52.190;20.910;2023-04-27T04:03:44;100262.13;;;2.13;100.00
35331;BME280;21441;52.190;20.910;2023-04-27T04:06:12;100260.25;;;2.26;100.00
35331;BME280;21441;52.190;20.910;2023-04-27T04:08:39;100264.69;;;2.37;100.00
35331;BME280;21441;52.190;20.910;2023-04-27T04:11:06;100261.56;;;2.20;100.00
35331;BME280;21441;52.190;20.910;2023-04-27T04:13:33;100264.56;;;2.27;100.00
35331;BME280;21441;52.190;20.910;2023-04-27T04:16:04;100265.88;;;2.33;100.00
35331;BME280;21441;52.190;20.910;2023-04-27T04:18:32;100276.31;;;2.34;100.00
35331;BME280;21441;52.190;20.910;2023-04-27T04:20:59;100271.75;;;2.36;100.00
35331;BME280;21441;52.190;20.910;2023-04-27T04:23:26;100267.59;;;2.45;100.00
35331;BME280;21441;52.190;20.910;2023-04-27T04:25:53;100268.31;;;2.47;100.00
35331;BME280;21441;52.190;20.910;2023-04-27T04:28:23;100277.41;;;2.54;100.00
35331;BME280;21441;52.190;20.910;2023-04-27T04:30:50;100271.31;;;2.54;100.00
35331;BME280;21441;52.190;20.910;2023-04-27T04:33:19;100273.56;;;2.69;100.00
35331;BME280;21441;52.190;20.910;2023-04-27T04:35:46;100276.56;;;2.76;100.00
35331;BME280;21441;52.190;20.910;2023-04-27T04:38:14;100279.44;;;2.84;100.00
35331;BME280;21441;52.190;20.910;2023-04-27T04:40:41;100270.00;;;2.82;100.00
35331;BME280;21441;52.190;20.910;2023-04-27T04:43:08;100280.41;;;3.06;100.00
35331;BME280;21441;52.190;20.910;2023-04-27T04:45:35;100274.72;;;3.22;100.00
35331;BME280;21441;52.190;20.910;2023-04-27T04:48:03;100278.06;;;3.35;100.00
35331;BME280;21441;52.190;20.910;2023-04-27T04:50:31;100279.53;;;3.17;100.00
35331;BME280;21441;52.190;20.910;2023-04-27T04:52:58;100293.50;;;3.40;100.00
35331;BME280;21441;52.190;20.910;2023-04-27T04:55:25;100283.19;;;3.48;100.00
35331;BME280;21441;52.190;20.910;2023-04-27T04:57:53;100291.78;;;3.61;100.00
35331;BME280;21441;52.190;20.910;2023-04-27T05:00:20;100286.44;;;3.72;100.00
35331;BME280;21441;52.190;20.910;2023-04-27T05:02:48;100285.59;;;4.04;100.00
35331;BME280;21441;52.190;20.910;2023-04-27T05:05:15;100294.75;;;4.21;100.00
35331;BME280;21441;52.190;20.910;2023-04-27T05:07:43;100290.88;;;4.25;100.00
35331;BME280;21441;52.190;20.910;2023-04-27T05:10:10;100298.59;;;4.38;100.00
35331;BME280;21441;52.190;20.910;2023-04-27T05:12:37;100306.06;;;4.12;100.00
35331;BME280;21441;52.190;20.910;2023-04-27T05:15:05;100303.56;;;4.31;100.00
35331;BME280;21441;52.190;20.910;2023-04-27T05:17:33;100306.53;;;4.17;100.00
35331;BME280;21441;52.190;20.910;2023-04-27T05:20:00;100298.59;;;4.38;100.00
35331;BME280;21441;52.190;20.910;2023-04-27T05:22:29;100296.81;;;4.18;100.00
35331;BME280;21441;52.190;20.910;2023-04-27T05:24:57;100313.50;;;4.39;100.00
35331;BME280;21441;52.190;20.910;2023-04-27T05:27:25;100310.94;;;4.59;100.00
35331;BME280;21441;52.190;20.910;2023-04-27T05:29:52;100305.63;;;4.70;100.00
35331;BME280;21441;52.190;20.910;2023-04-27T05:32:19;100311.34;;;4.54;100.00
35331;BME280;21441;52.190;20.910;2023-04-27T05:34:46;100316.06;;;4.50;100.00
35331;BME280;21441;52.190;20.910;2023-04-27T05:37:13;100316.38;;;4.57;100.00
35331;BME280;21441;52.190;20.910;2023-04-27T05:39:40;100309.78;;;4.72;100.00
35331;BME280;21441;52.190;20.910;2023-04-27T05:42:09;100313.88;;;4.86;100.00
35331;BME280;21441;52.190;20.910;2023-04-27T05:44:36;100318.19;;;4.87;100.00
35331;BME280;21441;52.190;20.910;2023-04-27T05:47:03;100319.97;;;5.08;100.00
35331;BME280;21441;52.190;20.910;2023-04-27T05:49:30;100320.88;;;5.37;100.00
35331;BME280;21441;52.190;20.910;2023-04-27T05:51:57;100320.69;;;5.89;99.16
35331;BME280;21441;52.190;20.910;2023-04-27T05:54:25;100314.56;;;5.98;92.43
35331;BME280;21441;52.190;20.910;2023-04-27T05:56:53;100313.47;;;6.11;88.32
35331;BME280;21441;52.190;20.910;2023-04-27T05:59:21;100310.13;;;6.09;86.13
35331;BME280;21441;52.190;20.910;2023-04-27T06:01:48;100322.47;;;5.69;88.89
35331;BME280;21441;52.190;20.910;2023-04-27T06:04:16;100326.19;;;5.47;91.87
35331;BME280;21441;52.190;20.910;2023-04-27T06:06:43;100322.47;;;5.69;90.05
35331;BME280;21441;52.190;20.910;2023-04-27T06:09:10;100324.28;;;5.78;90.54
35331;BME280;21441;52.190;20.910;2023-04-27T06:11:37;100319.31;;;6.24;88.93
35331;BME280;21441;52.190;20.910;2023-04-27T06:14:04;100328.47;;;6.59;84.89
35331;BME280;21441;52.190;20.910;2023-04-27T06:16:33;100322.72;;;6.54;82.98
35331;BME280;21441;52.190;20.910;2023-04-27T06:19:00;100328.28;;;6.60;80.74
35331;BME280;21441;52.190;20.910;2023-04-27T06:21:27;100332.66;;;6.42;80.92
35331;BME280;21441;52.190;20.910;2023-04-27T06:23:57;100331.41;;;6.46;80.69
35331;BME280;21441;52.190;20.910;2023-04-27T06:26:24;100334.38;;;6.14;83.80
35331;BME280;21441;52.190;20.910;2023-04-27T06:28:51;100331.72;;;6.14;86.21
35331;BME280;21441;52.190;20.910;2023-04-27T06:31:18;100336.03;;;6.05;85.88
35331;BME280;21441;52.190;20.910;2023-04-27T06:33:47;100325.47;;;5.95;87.15
35331;BME280;21441;52.190;20.910;2023-04-27T06:36:14;100340.09;;;6.09;86.68
35331;BME280;21441;52.190;20.910;2023-04-27T06:38:41;100342.59;;;6.30;nan
35331;BME280;21441;52.190;20.910;2023-04-27T06:41:08;100328.28;;;6.70;82.25
35331;BME280;21441;52.190;20.910;2023-04-27T06:43:35;100336.28;;;6.41;82.45
35331;BME280;21441;52.190;20.910;2023-04-27T06:46:03;100334.59;;;6.59;80.94
35331;BME280;21441;52.190;20.910;2023-04-27T06:48:30;100329.75;;;6.35;83.01
35331;BME280;21441;52.190;20.910;2023-04-27T06:50:59;100344.09;;;6.43;80.94
35331;BME280;21441;52.190;20.910;2023-04-27T06:53:26;100339.47;;;6.64;80.86
35331;BME280;21441;52.190;20.910;2023-04-27T06:55:54;100351.66;;;6.94;79.95
35331;BME280;21441;52.190;20.910;2023-04-27T06:58:21;100350.31;;;6.71;77.71
35331;BME280;21441;52.190;20.910;2023-04-27T07:00:48;100354.56;;;7.01;77.91
35331;BME280;21441;52.190;20.910;2023-04-27T07:03:16;100351.66;;;7.32;74.26
35331;BME280;21441;52.190;20.910;2023-04-27T07:05:43;100346.78;;;7.27;74.61
35331;BME280;21441;52.190;20.910;2023-04-27T07:08:12;100349.00;;;7.32;74.89
35331;BME280;21441;52.190;20.910;2023-04-27T07:10:39;100352.78;;;7.75;73.61
35331;BME280;21441;52.190;20.910;2023-04-27T07:13:06;100346.81;;;7.91;70.74
35331;BME280;21441;52.190;20.910;2023-04-27T07:15:34;100349.38;;;8.18;70.01
35331;BME280;21441;52.190;20.910;2023-04-27T07:18:01;100345.88;;;8.36;66.93
35331;BME280;21441;52.190;20.910;2023-04-27T07:20:28;100351.72;;;8.57;66.23
35331;BME280;21441;52.190;20.910;2023-04-27T07:22:55;100341.38;;;8.80;64.42
35331;BME280;21441;52.190;20.910;2023-04-27T07:25:24;100358.44;;;8.43;62.04
35331;BME280;21441;52.190;20.910;2023-04-27T07:27:51;100347.41;;;8.20;65.28
35331;BME280;21441;52.190;20.910;2023-04-27T07:30:18;100350.06;;;8.20;65.30
35331;BME280;21441;52.190;20.910;2023-04-27T07:32:46;100350.00;;;8.30;65.47
35331;BME280;21441;52.190;20.910;2023-04-27T07:35:19;100357.34;;;8.18;67.42
35331;BME280;21441;52.190;20.910;2023-04-27T07:37:47;100344.47;;;8.23;64.53
35331;BME280;21441;52.190;20.910;2023-04-27T07:40:15;100348.41;;;8.19;64.23
35331;BME280;21441;52.190;20.910;2023-04-27T07:42:43;100361.53;;;8.21;65.20
35331;BME280;21441;52.190;20.910;2023-04-27T07:45:11;100350.91;;;8.03;66.10
35331;BME280;21441;52.190;20.910;2023-04-27T07:47:38;100353.97;;;8.08;67.79
35331;BME280;21441;52.190;20.910;2023-04-27T07:50:06;100355.94;;;8.06;65.28
35331;BME280;21441;52.190;20.910;2023-04-27T07:52:33;100361.66;;;7.83;65.49
35331;BME280;21441;52.190;20.910;2023-04-27T07:55:01;100357.06;;;8.03;62.18
35331;BME280;21441;52.190;20.910;2023-04-27T07:57:29;100353.78;;;8.27;63.46
35331;BME280;21441;52.190;20.910;2023-04-27T07:59:58;100357.44;;;8.26;63.08
35331;BME280;21441;52.190;20.910;2023-04-27T08:02:25;100343.63;;;7.87;64.10
35331;BME280;21441;52.190;20.910;2023-04-27T08:04:55;100373.53;;;8.07;63.01
35331;BME280;21441;52.190;20.910;2023-04-27T08:07:22;100365.84;;;8.58;62.60
35331;BME280;21441;52.190;20.910;2023-04-27T08:09:49;100365.13;;;9.00;61.24
35331;BME280;21441;52.190;20.910;2023-04-27T08:12:16;100370.94;;;8.33;62.80
35331;BME280;21441;52.190;20.910;2023-04-27T08:14:44;100366.19;;;8.81;62.20
35331;BME280;21441;52.190;20.910;2023-04-27T08:17:12;100364.13;;;9.35;60.40
35331;BME280;21441;52.190;20.910;2023-04-27T08:19:40;100369.63;;;9.84;58.00
35331;BME280;21441;52.190;20.910;2023-04-27T08:22:07;100364.28;;;9.84;56.11
35331;BME280;21441;52.190;20.910;2023-04-27T08:24:34;100368.47;;;9.87;53.10
35331;BME280;21441;52.190;20.910;2023-04-27T08:27:02;100373.44;;;9.74;53.59
35331;BME280;21441;52.190;20.910;2023-04-27T08:29:29;100372.78;;;9.80;54.43
35331;BME280;21441;52.190;20.910;2023-04-27T08:31:58;100370.94;;;9.80;53.86
35331;BME280;21441;52.190;20.910;2023-04-27T08:34:28;100364.06;;;9.61;55.61
35331;BME280;21441;52.190;20.910;2023-04-27T08:36:55;100363.69;;;10.23;54.00
35331;BME280;21441;52.190;20.910;2023-04-27T08:39:23;100370.78;;;9.82;53.04
35331;BME280;21441;52.190;20.910;2023-04-27T08:41:50;100357.50;;;9.39;53.45
35331;BME280;21441;52.190;20.910;2023-04-27T08:44:18;100366.19;;;9.15;54.97
35331;BME280;21441;52.190;20.910;2023-04-27T08:46:45;100365.03;;;9.52;54.48
35331;BME280;21441;52.190;20.910;2023-04-27T08:49:12;100357.22;;;10.42;54.50
35331;BME280;21441;52.190;20.910;2023-04-27T08:51:41;100353.19;;;10.71;51.42
35331;BME280;21441;52.190;20.910;2023-04-27T08:54:09;100344.69;;;10.51;49.21
35331;BME280;21441;52.190;20.910;2023-04-27T08:56:35;100356.16;;;10.02;50.14
35331;BME280;21441;52.190;20.910;2023-04-27T08:59:12;100343.69;;;9.95;49.33
35331;BME280;21441;52.190;20.910;2023-04-27T09:01:43;100347.03;;;10.21;49.52
35331;BME280;21441;52.190;20.910;2023-04-27T09:04:10;100333.41;;;10.41;49.30
35331;BME280;21441;52.190;20.910;2023-04-27T09:06:37;100343.09;;;10.98;48.81
35331;BME280;21441;52.190;20.910;2023-04-27T09:09:06;100335.69;;;10.68;49.44
35331;BME280;21441;52.190;20.910;2023-04-27T09:11:34;100345.72;;;10.42;49.23
35331;BME280;21441;52.190;20.910;2023-04-27T09:14:14;100352.09;;;9.65;50.95
35331;BME280;21441;52.190;20.910;2023-04-27T09:16:41;100357.59;;;9.64;52.08
35331;BME280;21441;52.190;20.910;2023-04-27T09:19:09;100350.84;;;10.10;51.42
35331;BME280;21441;52.190;20.910;2023-04-27T09:21:36;100347.56;;;10.41;50.20
35331;BME280;21441;52.190;20.910;2023-04-27T09:24:12;100340.88;;;10.37;50.35
35331;BME280;21441;52.190;20.910;2023-04-27T09:26:39;100344.53;;;10.44;49.18
35331;BME280;21441;52.190;20.910;2023-04-27T09:29:07;100347.31;;;9.94;49.07
35331;BME280;21441;52.190;20.910;2023-04-27T09:31:36;100342.16;;;10.00;49.65
35331;BME280;21441;52.190;20.910;2023-04-27T09:34:03;100338.16;;;9.96;49.58
35331;BME280;21441;52.190;20.910;2023-04-27T09:36:30;100340.00;;;9.96;49.84
35331;BME280;21441;52.190;20.910;2023-04-27T09:39:01;100333.31;;;10.73;48.70
35331;BME280;21441;52.190;20.910;2023-04-27T09:41:31;100333.75;;;11.10;48.11
35331;BME280;21441;52.190;20.910;2023-04-27T09:43:59;100334.03;;;10.43;48.00
35331;BME280;21441;52.190;20.910;2023-04-27T09:46:28;100328.72;;;10.35;49.74
35331;BME280;21441;52.190;20.910;2023-04-27T09:49:00;100345.78;;;9.66;51.25
35331;BME280;21441;52.190;20.910;2023-04-27T09:51:30;100354.28;;;9.78;51.69
35331;BME280;21441;52.190;20.910;2023-04-27T09:53:59;100347.31;;;9.35;52.22
35331;BME280;21441;52.190;20.910;2023-04-27T09:56:36;100359.16;;;9.06;53.92
35331;BME280;21441;52.190;20.910;2023-04-27T09:59:21;100362.72;;;9.15;52.99
35331;BME280;21441;52.190;20.910;2023-04-27T10:01:57;100364.09;;;8.66;53.76
35331;BME280;21441;52.190;20.910;2023-04-27T10:04:42;100367.59;;;8.49;54.29
35331;BME280;21441;52.190;20.910;2023-04-27T10:07:13;100360.25;;;7.89;52.71
35331;BME280;21441;52.190;20.910;2023-04-27T10:09:42;100358.25;;;7.73;51.43
35331;BME280;21441;52.190;20.910;2023-04-27T10:12:16;100356.75;;;7.71;51.46
35331;BME280;21441;52.190;20.910;2023-04-27T10:14:48;100369.97;;;7.98;51.27
35331;BME280;21441;52.190;20.910;2023-04-27T10:17:16;100368.34;;;7.88;49.58
35331;BME280;21441;52.190;20.910;2023-04-27T10:19:55;100363.59;;;8.27;47.58
35331;BME280;21441;52.190;20.910;2023-04-27T10:22:22;100371.03;;;8.23;46.67
35331;BME280;21441;52.190;20.910;2023-04-27T10:24:50;100361.38;;;8.40;46.37
35331;BME280;21441;52.190;20.910;2023-04-27T10:27:19;100366.91;;;8.29;47.08
35331;BME280;21441;52.190;20.910;2023-04-27T10:29:48;100369.28;;;8.14;50.02
35331;BME280;21441;52.190;20.910;2023-04-27T10:32:20;100369.97;;;7.98;52.30
35331;BME280;21441;52.190;20.910;2023-04-27T10:34:48;100363.69;;;7.99;53.19
35331;BME280;21441;52.190;20.910;2023-04-27T10:37:17;100368.81;;;8.19;54.26
35331;BME280;21441;52.190;20.910;2023-04-27T10:39:49;100365.78;;;8.14;53.74
35331;BME280;21441;52.190;20.910;2023-04-27T10:42:27;100368.41;;;8.41;53.98
35331;BME280;21441;52.190;20.910;2023-04-27T10:44:56;100356.50;;;8.54;53.11
35331;BME280;21441;52.190;20.910;2023-04-27T10:47:23;100363.31;;;8.74;53.04
35331;BME280;21441;52.190;20.910;2023-04-27T10:49:52;100358.53;;;9.46;51.16
35331;BME280;21441;52.190;20.910;2023-04-27T10:52:19;100361.94;;;9.73;50.77
35331;BME280;21441;52.190;20.910;2023-04-27T10:54:47;100354.47;;;9.85;49.58
35331;BME280;21441;52.190;20.910;2023-04-27T10:57:14;100357.00;;;9.95;49.36
35331;BME280;21441;52.190;20.910;2023-04-27T10:59:50;100355.56;;;10.41;49.41
35331;BME280;21441;52.190;20.910;2023-04-27T11:02:24;100363.16;;;10.11;50.72
35331;BME280;21441;52.190;20.910;2023-04-27T11:04:53;100368.66;;;11.00;49.91
35331;BME280;21441;52.190;20.910;2023-04-27T11:07:23;100357.75;;;11.18;49.75
35331;BME280;21441;52.190;20.910;2023-04-27T11:09:52;100355.38;;;10.67;49.79
35331;BME280;21441;52.190;20.910;2023-04-27T11:12:20;100366.50;;;10.87;49.54
35331;BME280;21441;52.190;20.910;2023-04-27T11:14:49;100366.63;;;11.50;48.44
35331;BME280;21441;52.190;20.910;2023-04-27T11:17:16;100354.03;;;11.98;46.43
35331;BME280;21441;52.190;20.910;2023-04-27T11:19:53;100365.03;;;12.26;45.56
35331;BME280;21441;52.190;20.910;2023-04-27T11:22:20;100365.22;;;12.02;44.53
35331;BME280;21441;52.190;20.910;2023-04-27T11:24:48;100356.56;;;12.61;43.80
35331;BME280;21441;52.190;20.910;2023-04-27T11:27:16;100365.34;;;11.77;43.30
35331;BME280;21441;52.190;20.910;2023-04-27T11:29:43;100361.34;;;11.73;43.12
35331;BME280;21441;52.190;20.910;2023-04-27T11:32:19;100355.94;;;11.89;42.50
35331;BME280;21441;52.190;20.910;2023-04-27T11:34:49;100362.72;;;12.00;41.83
35331;BME280;21441;52.190;20.910;2023-04-27T11:37:20;100358.59;;;12.35;42.01
35331;BME280;21441;52.190;20.910;2023-04-27T11:39:50;100360.84;;;12.47;42.38
35331;BME280;21441;52.190;20.910;2023-04-27T11:42:20;100350.69;;;12.80;42.03
35331;BME280;21441;52.190;20.910;2023-04-27T11:44:52;100356.50;;;12.84;42.63
35331;BME280;21441;52.190;20.910;2023-04-27T11:47:20;100357.03;;;12.79;41.69
35331;BME280;21441;52.190;20.910;2023-04-27T11:49:48;100355.75;;;12.75;41.52
35331;BME280;21441;52.190;20.910;2023-04-27T11:52:16;100350.50;;;13.11;41.44
35331;BME280;21441;52.190;20.910;2023-04-27T11:54:47;100338.88;;;13.49;41.38
35331;BME280;21441;52.190;20.910;2023-04-27T11:57:15;100348.94;;;13.83;40.66
35331;BME280;21441;52.190;20.910;2023-04-27T11:59:42;100347.09;;;13.47;40.82
35331;BME280;21441;52.190;20.910;2023-04-27T12:02:09;100347.59;;;13.72;40.50
35331;BME280;21441;52.190;20.910;2023-04-27T12:04:38;100337.84;;;13.50;40.00
35331;BME280;21441;52.190;20.910;2023-04-27T12:07:05;100337.13;;;13.26;39.12
35331;BME280;21441;52.190;20.910;2023-04-27T12:09:33;100338.88;;;13.34;39.21
35331;BME280;21441;52.190;20.910;2023-04-27T12:12:00;100336.31;;;13.11;39.92
35331;BME280;21441;52.190;20.910;2023-04-27T12:14:28;100343.63;;;12.49;40.40
35331;BME280;21441;52.190;20.910;2023-04-27T12:16:55;100345.84;;;12.61;40.47
35331;BME280;21441;52.190;20.910;2023-04-27T12:19:22;100340.44;;;12.98;40.34
35331;BME280;21441;52.190;20.910;2023-04-27T12:21:51;100344.69;;;13.89;39.53
35331;BME280;21441;52.190;20.910;2023-04-27T12:24:19;100336.84;;;14.80;37.87
35331;BME280;21441;52.190;20.910;2023-04-27T12:26:47;100334.28;;;15.00;37.61
35331;BME280;21441;52.190;20.910;2023-04-27T12:29:14;100331.88;;;15.18;37.82
35331;BME280;21441;52.190;20.910;2023-04-27T12:31:41;100330.47;;;14.88;37.37
35331;BME280;21441;52.190;20.910;2023-04-27T12:34:09;100330.78;;;15.06;37.41
35331;BME280;21441;52.190;20.910;2023-04-27T12:36:36;100328.75;;;15.15;36.98
35331;BME280;21441;52.190;20.910;2023-04-27T12:39:14;100338.06;;;15.19;36.61
35331;BME280;21441;52.190;20.910;2023-04-27T12:41:42;100342.78;;;14.04;37.23
35331;BME280;21441;52.190;20.910;2023-04-27T12:44:09;100343.59;;;13.47;38.64
35331;BME280;21441;52.190;20.910;2023-04-27T12:46:37;100345.78;;;13.43;38.88
35331;BME280;21441;52.190;20.910;2023-04-27T12:49:04;100341.97;;;13.52;38.28